sensor_id;sensor_type;location;lat;lon;timestamp;P1;durP1;ratioP1;P2;durP2;ratioP2
80257;SDS011;69565;37.974;23.708;2023-04-25T00:01:48;4.22;;;1.30;;
80257;SDS011;69565;37.974;23.708;2023-04-25T00:04:14;2.67;;;1.00;;
80257;SDS011;69565;37.974;23.708;2023-04-25T00:06:39;3.10;;;1.10;;
80257;SDS011;69565;37.974;23.708;2023-04-25T00:09:05;3.75;;;1.20;;
80257;SDS011;69565;37.974;23.708;2023-04-25T00:11:36;4.40;;;1.00;;
80257;SDS011;69565;37.974;23.708;2023-04-25T00:14:02;4.50;;;0.90;;
80257;SDS011;69565;37.974;23.708;2023-04-25T00:16:29;2.95;;;1.00;;
80257;SDS011;69565;37.974;23.708;2023-04-25T00:18:58;4.25;;;1.13;;
80257;SDS011;69565;37.974;23.708;2023-04-25T00:21:24;2.88;;;1.05;;
80257;SDS011;69565;37.974;23.708;2023-04-25T00:23:50;2.80;;;1.10;;
80257;SDS011;69565;37.974;23.708;2023-04-25T00:26:18;2.63;;;1.00;;
80257;SDS011;69565;37.974;23.708;2023-04-25T00:28:45;2.80;;;1.00;;
80257;SDS011;69565;37.974;23.708;2023-04-25T00:31:12;2.40;;;1.02;;
80257;SDS011;69565;37.974;23.708;2023-04-25T00:33:37;1.52;;;1.00;;
80257;SDS011;69565;37.974;23.708;2023-04-25T00:36:03;4.95;;;1.00;;
80257;SDS011;69565;37.974;23.708;2023-04-25T00:38:29;3.28;;;1.00;;
80257;SDS011;69565;37.974;23.708;2023-04-25T00:40:55;1.38;;;0.90;;
80257;SDS011;69565;37.974;23.708;2023-04-25T00:43:21;2.90;;;1.02;;
80257;SDS011;69565;37.974;23.708;2023-04-25T00:45:47;1.85;;;0.90;;
80257;SDS011;69565;37.974;23.708;2023-04-25T00:48:15;2.85;;;1.00;;
80257;SDS011;69565;37.974;23.708;2023-04-25T00:50:40;2.67;;;1.05;;
80257;SDS011;69565;37.974;23.708;2023-04-25T00:53:07;2.45;;;1.02;;
80257;SDS011;69565;37.974;23.708;2023-04-25T00:55:34;2.30;;;1.20;;
80257;SDS011;69565;37.974;23.708;2023-04-25T00:58:01;1.50;;;1.00;;
80257;SDS011;69565;37.974;23.708;2023-04-25T01:00:26;1.52;;;1.02;;
80257;SDS011;69565;37.974;23.708;2023-04-25T01:02:52;2.38;;;1.00;;
80257;SDS011;69565;37.974;23.708;2023-04-25T01:05:18;3.90;;;0.90;;
80257;SDS011;69565;37.974;23.708;2023-04-25T01:07:44;2.22;;;0.90;;
80257;SDS011;69565;37.974;23.708;2023-04-25T01:10:10;2.78;;;1.00;;
80257;SDS011;69565;37.974;23.708;2023-04-25T01:12:36;1.15;;;0.85;;
80257;SDS011;69565;37.974;23.708;2023-04-25T01:15:02;1.65;;;1.00;;
80257;SDS011;69565;37.974;23.708;2023-04-25T01:17:28;2.60;;;0.90;;
80257;SDS011;69565;37.974;23.708;2023-04-25T01:19:54;2.95;;;1.00;;
80257;SDS011;69565;37.974;23.708;2023-04-25T01:22:20;2.17;;;0.85;;
80257;SDS011;69565;37.974;23.708;2023-04-25T01:24:46;1.42;;;0.90;;
80257;SDS011;69565;37.974;23.708;2023-04-25T01:27:12;3.65;;;1.00;;
80257;SDS011;69565;37.974;23.708;2023-04-25T01:29:38;1.83;;;0.90;;
80257;SDS011;69565;37.974;23.708;2023-04-25T01:32:04;1.83;;;0.90;;
80257;SDS011;69565;37.974;23.708;2023-04-25T01:34:31;2.45;;;0.90;;
80257;SDS011;69565;37.974;23.708;2023-04-25T01:36:57;7.32;;;0.90;;
80257;SDS011;69565;37.974;23.708;2023-04-25T01:39:25;2.13;;;0.90;;
80257;SDS011;69565;37.974;23.708;2023-04-25T01:41:50;2.40;;;1.00;;
80257;SDS011;69565;37.974;23.708;2023-04-25T01:44:16;2.42;;;1.00;;
80257;SDS011;69565;37.974;23.708;2023-04-25T01:46:42;1.70;;;0.90;;
80257;SDS011;69565;37.974;23.708;2023-04-25T01:49:08;1.60;;;0.90;;
80257;SDS011;69565;37.974;23.708;2023-04-25T01:51:33;3.03;;;1.10;;
80257;SDS011;69565;37.974;23.708;2023-04-25T01:54:00;2.75;;;0.90;;
80257;SDS011;69565;37.974;23.708;2023-04-25T01:56:29;1.73;;;0.80;;
80257;SDS011;69565;37.974;23.708;2023-04-25T01:59:01;1.27;;;0.85;;
80257;SDS011;69565;37.974;23.708;2023-04-25T02:01:28;4.57;;;0.90;;
80257;SDS011;69565;37.974;23.708;2023-04-25T02:03:53;3.38;;;0.82;;
80257;SDS011;69565;37.974;23.708;2023-04-25T02:06:19;1.38;;;0.90;;
80257;SDS011;69565;37.974;23.708;2023-04-25T02:08:45;1.40;;;1.00;;
80257;SDS011;69565;37.974;23.708;2023-04-25T02:11:11;3.20;;;0.90;;
80257;SDS011;69565;37.974;23.708;2023-04-25T02:13:37;1.00;;;0.80;;
80257;SDS011;69565;37.974;23.708;2023-04-25T02:16:02;1.75;;;0.90;;
80257;SDS011;69565;37.974;23.708;2023-04-25T02:18:28;1.50;;;0.80;;
80257;SDS011;69565;37.974;23.708;2023-04-25T02:20:54;2.20;;;1.10;;
80257;SDS011;69565;37.974;23.708;2023-04-25T02:23:19;1.80;;;0.90;;
80257;SDS011;69565;37.974;23.708;2023-04-25T02:25:45;1.55;;;0.90;;
80257;SDS011;69565;37.974;23.708;2023-04-25T02:28:11;1.70;;;0.90;;
80257;SDS011;69565;37.974;23.708;2023-04-25T02:30:37;1.65;;;0.90;;
80257;SDS011;69565;37.974;23.708;2023-04-25T02:33:03;2.65;;;0.80;;
80257;SDS011;69565;37.974;23.708;2023-04-25T02:35:28;3.17;;;0.90;;
80257;SDS011;69565;37.974;23.708;2023-04-25T02:37:54;2.15;;;0.90;;
80257;SDS011;69565;37.974;23.708;2023-04-25T02:40:20;2.50;;;0.90;;
80257;SDS011;69565;37.974;23.708;2023-04-25T02:42:45;3.42;;;0.95;;
80257;SDS011;69565;37.974;23.708;2023-04-25T02:45:11;3.65;;;1.10;;
80257;SDS011;69565;37.974;23.708;2023-04-25T02:47:37;2.75;;;0.90;;
80257;SDS011;69565;37.974;23.708;2023-04-25T02:50:03;2.35;;;1.10;;
80257;SDS011;69565;37.974;23.708;2023-04-25T02:52:29;6.93;;;1.10;;
80257;SDS011;69565;37.974;23.708;2023-04-25T02:54:55;3.08;;;1.10;;
80257;SDS011;69565;37.974;23.708;2023-04-25T02:57:21;1.80;;;0.90;;
80257;SDS011;69565;37.974;23.708;2023-04-25T02:59:47;3.08;;;1.00;;
80257;SDS011;69565;37.974;23.708;2023-04-25T03:02:12;3.67;;;1.08;;
80257;SDS011;69565;37.974;23.708;2023-04-25T03:04:38;3.95;;;0.98;;
80257;SDS011;69565;37.974;23.708;2023-04-25T03:07:04;7.65;;;1.10;;
80257;SDS011;69565;37.974;23.708;2023-04-25T03:09:30;3.55;;;1.00;;
80257;SDS011;69565;37.974;23.708;2023-04-25T03:11:56;4.97;;;1.00;;
80257;SDS011;69565;37.974;23.708;2023-04-25T03:14:21;1.98;;;0.90;;
80257;SDS011;69565;37.974;23.708;2023-04-25T03:16:47;2.50;;;1.10;;
80257;SDS011;69565;37.974;23.708;2023-04-25T03:19:12;4.18;;;1.05;;
80257;SDS011;69565;37.974;23.708;2023-04-25T03:21:40;2.25;;;0.90;;
80257;SDS011;69565;37.974;23.708;2023-04-25T03:24:06;4.65;;;0.90;;
80257;SDS011;69565;37.974;23.708;2023-04-25T03:26:32;2.78;;;1.00;;
80257;SDS011;69565;37.974;23.708;2023-04-25T03:28:58;2.85;;;1.00;;
80257;SDS011;69565;37.974;23.708;2023-04-25T03:31:23;2.92;;;0.90;;
80257;SDS011;69565;37.974;23.708;2023-04-25T03:33:49;6.82;;;1.35;;
80257;SDS011;69565;37.974;23.708;2023-04-25T03:36:15;7.20;;;1.10;;
80257;SDS011;69565;37.974;23.708;2023-04-25T03:38:41;12.02;;;1.45;;
80257;SDS011;69565;37.974;23.708;2023-04-25T03:41:07;5.50;;;1.20;;
80257;SDS011;69565;37.974;23.708;2023-04-25T03:43:33;2.67;;;0.90;;
80257;SDS011;69565;37.974;23.708;2023-04-25T03:45:58;2.88;;;1.00;;
80257;SDS011;69565;37.974;23.708;2023-04-25T03:48:25;5.18;;;0.98;;
80257;SDS011;69565;37.974;23.708;2023-04-25T03:50:52;5.03;;;1.00;;
80257;SDS011;69565;37.974;23.708;2023-04-25T03:53:18;4.53;;;1.00;;
80257;SDS011;69565;37.974;23.708;2023-04-25T03:55:44;2.90;;;0.98;;
80257;SDS011;69565;37.974;23.708;2023-04-25T03:58:09;4.72;;;0.90;;
80257;SDS011;69565;37.974;23.708;2023-04-25T04:00:35;2.40;;;0.90;;
80257;SDS011;69565;37.974;23.708;2023-04-25T04:03:01;6.20;;;0.90;;
80257;SDS011;69565;37.974;23.708;2023-04-25T04:05:27;8.93;;;1.00;;
80257;SDS011;69565;37.974;23.708;2023-04-25T04:07:53;7.50;;;1.10;;
80257;SDS011;69565;37.974;23.708;2023-04-25T04:10:19;5.32;;;1.10;;
80257;SDS011;69565;37.974;23.708;2023-04-25T04:12:45;12.52;;;1.00;;
80257;SDS011;69565;37.974;23.708;2023-04-25T04:15:11;5.57;;;1.10;;
80257;SDS011;69565;37.974;23.708;2023-04-25T04:17:37;7.57;;;1.45;;
80257;SDS011;69565;37.974;23.708;2023-04-25T04:20:03;41.15;;;1.80;;
80257;SDS011;69565;37.974;23.708;2023-04-25T04:22:29;44.13;;;2.53;;
80257;SDS011;69565;37.974;23.708;2023-04-25T04:24:55;17.58;;;1.25;;
80257;SDS011;69565;37.974;23.708;2023-04-25T04:27:22;27.33;;;1.38;;
80257;SDS011;69565;37.974;23.708;2023-04-25T04:29:48;29.80;;;1.63;;
80257;SDS011;69565;37.974;23.708;2023-04-25T04:32:14;16.73;;;1.00;;
80257;SDS011;69565;37.974;23.708;2023-04-25T04:34:40;21.45;;;1.25;;
80257;SDS011;69565;37.974;23.708;2023-04-25T04:37:06;15.55;;;1.20;;
80257;SDS011;69565;37.974;23.708;2023-04-25T04:39:35;10.52;;;1.00;;
80257;SDS011;69565;37.974;23.708;2023-04-25T04:42:01;16.63;;;1.27;;
80257;SDS011;69565;37.974;23.708;2023-04-25T04:44:28;12.65;;;1.27;;
80257;SDS011;69565;37.974;23.708;2023-04-25T04:46:54;10.80;;;1.27;;
80257;SDS011;69565;37.974;23.708;2023-04-25T04:49:20;13.32;;;1.20;;
80257;SDS011;69565;37.974;23.708;2023-04-25T04:51:46;11.77;;;0.95;;
80257;SDS011;69565;37.974;23.708;2023-04-25T04:54:12;13.07;;;1.10;;
80257;SDS011;69565;37.974;23.708;2023-04-25T04:56:38;4.68;;;0.90;;
80257;SDS011;69565;37.974;23.708;2023-04-25T04:59:04;9.05;;;1.08;;
80257;SDS011;69565;37.974;23.708;2023-04-25T05:01:29;5.53;;;1.00;;
80257;SDS011;69565;37.974;23.708;2023-04-25T05:03:55;11.02;;;1.10;;
80257;SDS011;69565;37.974;23.708;2023-04-25T05:06:25;7.60;;;1.00;;
80257;SDS011;69565;37.974;23.708;2023-04-25T05:08:52;7.45;;;1.00;;
80257;SDS011;69565;37.974;23.708;2023-04-25T05:11:18;4.78;;;1.00;;
80257;SDS011;69565;37.974;23.708;2023-04-25T05:13:44;7.38;;;1.10;;
80257;SDS011;69565;37.974;23.708;2023-04-25T05:16:10;6.50;;;1.08;;
80257;SDS011;69565;37.974;23.708;2023-04-25T05:18:37;6.22;;;1.00;;
80257;SDS011;69565;37.974;23.708;2023-04-25T05:21:02;4.82;;;1.27;;
80257;SDS011;69565;37.974;23.708;2023-04-25T05:23:28;6.20;;;1.80;;
80257;SDS011;69565;37.974;23.708;2023-04-25T05:25:55;5.68;;;1.30;;
80257;SDS011;69565;37.974;23.708;2023-04-25T05:28:21;5.55;;;1.10;;
80257;SDS011;69565;37.974;23.708;2023-04-25T05:30:47;4.88;;;1.70;;
80257;SDS011;69565;37.974;23.708;2023-04-25T05:33:13;4.85;;;1.65;;
80257;SDS011;69565;37.974;23.708;2023-04-25T05:35:39;5.88;;;1.00;;
80257;SDS011;69565;37.974;23.708;2023-04-25T05:38:05;5.00;;;1.10;;
80257;SDS011;69565;37.974;23.708;2023-04-25T05:40:31;3.45;;;1.00;;
80257;SDS011;69565;37.974;23.708;2023-04-25T05:42:57;3.42;;;0.90;;
80257;SDS011;69565;37.974;23.708;2023-04-25T05:45:22;5.28;;;1.58;;
80257;SDS011;69565;37.974;23.708;2023-04-25T05:47:48;3.10;;;0.70;;
80257;SDS011;69565;37.974;23.708;2023-04-25T05:50:14;2.40;;;0.90;;
80257;SDS011;69565;37.974;23.708;2023-04-25T05:52:39;14.93;;;1.13;;
80257;SDS011;69565;37.974;23.708;2023-04-25T05:55:05;3.15;;;0.80;;
80257;SDS011;69565;37.974;23.708;2023-04-25T05:57:31;4.47;;;0.80;;
80257;SDS011;69565;37.974;23.708;2023-04-25T05:59:57;6.43;;;0.80;;
80257;SDS011;69565;37.974;23.708;2023-04-25T06:02:22;3.67;;;0.80;;
80257;SDS011;69565;37.974;23.708;2023-04-25T06:04:51;9.20;;;0.70;;
80257;SDS011;69565;37.974;23.708;2023-04-25T06:07:18;1.65;;;0.70;;
80257;SDS011;69565;37.974;23.708;2023-04-25T06:09:44;2.75;;;0.50;;
80257;SDS011;69565;37.974;23.708;2023-04-25T06:12:09;3.13;;;0.60;;
80257;SDS011;69565;37.974;23.708;2023-04-25T06:14:35;1.40;;;0.70;;
80257;SDS011;69565;37.974;23.708;2023-04-25T06:17:02;1.38;;;0.50;;
80257;SDS011;69565;37.974;23.708;2023-04-25T06:19:35;1.85;;;0.60;;
80257;SDS011;69565;37.974;23.708;2023-04-25T06:22:01;5.30;;;0.60;;
80257;SDS011;69565;37.974;23.708;2023-04-25T06:24:27;4.20;;;0.50;;
80257;SDS011;69565;37.974;23.708;2023-04-25T06:26:53;1.63;;;0.50;;
80257;SDS011;69565;37.974;23.708;2023-04-25T06:29:19;1.40;;;0.40;;
80257;SDS011;69565;37.974;23.708;2023-04-25T06:31:45;1.52;;;0.45;;
80257;SDS011;69565;37.974;23.708;2023-04-25T06:34:11;1.20;;;0.40;;
80257;SDS011;69565;37.974;23.708;2023-04-25T06:36:37;3.53;;;0.40;;
80257;SDS011;69565;37.974;23.708;2023-04-25T06:39:03;1.90;;;0.40;;
80257;SDS011;69565;37.974;23.708;2023-04-25T06:41:28;3.63;;;0.40;;
80257;SDS011;69565;37.974;23.708;2023-04-25T06:43:54;0.63;;;0.40;;
80257;SDS011;69565;37.974;23.708;2023-04-25T06:46:23;0.60;;;0.30;;
80257;SDS011;69565;37.974;23.708;2023-04-25T06:48:48;3.35;;;0.40;;
80257;SDS011;69565;37.974;23.708;2023-04-25T06:51:15;0.75;;;0.30;;
80257;SDS011;69565;37.974;23.708;2023-04-25T06:53:41;0.52;;;0.30;;
80257;SDS011;69565;37.974;23.708;2023-04-25T06:56:07;2.97;;;0.30;;
80257;SDS011;69565;37.974;23.708;2023-04-25T06:58:32;4.63;;;0.30;;
80257;SDS011;69565;37.974;23.708;2023-04-25T07:00:58;2.15;;;0.40;;
80257;SDS011;69565;37.974;23.708;2023-04-25T07:03:24;5.07;;;0.43;;
80257;SDS011;69565;37.974;23.708;2023-04-25T07:05:50;0.68;;;0.40;;
80257;SDS011;69565;37.974;23.708;2023-04-25T07:08:16;3.75;;;0.50;;
80257;SDS011;69565;37.974;23.708;2023-04-25T07:10:42;1.50;;;0.50;;
80257;SDS011;69565;37.974;23.708;2023-04-25T07:13:07;0.93;;;0.40;;
80257;SDS011;69565;37.974;23.708;2023-04-25T07:15:33;6.55;;;0.50;;
80257;SDS011;69565;37.974;23.708;2023-04-25T07:17:59;4.30;;;0.50;;
80257;SDS011;69565;37.974;23.708;2023-04-25T07:20:25;3.78;;;0.50;;
80257;SDS011;69565;37.974;23.708;2023-04-25T07:22:52;2.67;;;0.50;;
80257;SDS011;69565;37.974;23.708;2023-04-25T07:25:18;12.02;;;0.55;;
80257;SDS011;69565;37.974;23.708;2023-04-25T07:27:45;4.20;;;0.50;;
80257;SDS011;69565;37.974;23.708;2023-04-25T07:30:11;3.00;;;0.43;;
80257;SDS011;69565;37.974;23.708;2023-04-25T07:32:37;0.88;;;0.40;;
80257;SDS011;69565;37.974;23.708;2023-04-25T07:35:03;3.05;;;0.40;;
80257;SDS011;69565;37.974;23.708;2023-04-25T07:37:29;3.90;;;0.40;;
80257;SDS011;69565;37.974;23.708;2023-04-25T07:39:55;3.60;;;0.30;;
80257;SDS011;69565;37.974;23.708;2023-04-25T07:42:21;2.58;;;0.40;;
80257;SDS011;69565;37.974;23.708;2023-04-25T07:44:46;2.90;;;0.50;;
80257;SDS011;69565;37.974;23.708;2023-04-25T07:47:12;0.80;;;0.40;;
80257;SDS011;69565;37.974;23.708;2023-04-25T07:49:38;3.92;;;0.45;;
80257;SDS011;69565;37.974;23.708;2023-04-25T07:52:05;2.03;;;0.40;;
80257;SDS011;69565;37.974;23.708;2023-04-25T07:54:31;1.38;;;0.43;;
80257;SDS011;69565;37.974;23.708;2023-04-25T07:56:57;2.08;;;0.38;;
80257;SDS011;69565;37.974;23.708;2023-04-25T07:59:23;2.03;;;0.30;;
80257;SDS011;69565;37.974;23.708;2023-04-25T08:01:49;3.15;;;0.30;;
80257;SDS011;69565;37.974;23.708;2023-04-25T08:04:15;0.80;;;0.30;;
80257;SDS011;69565;37.974;23.708;2023-04-25T08:06:41;1.15;;;0.35;;
80257;SDS011;69565;37.974;23.708;2023-04-25T08:09:08;1.60;;;0.50;;
80257;SDS011;69565;37.974;23.708;2023-04-25T08:11:34;1.40;;;0.35;;
80257;SDS011;69565;37.974;23.708;2023-04-25T08:14:01;2.55;;;0.40;;
80257;SDS011;69565;37.974;23.708;2023-04-25T08:16:27;1.77;;;0.40;;
80257;SDS011;69565;37.974;23.708;2023-04-25T08:18:52;1.73;;;0.30;;
80257;SDS011;69565;37.974;23.708;2023-04-25T08:21:18;2.75;;;0.30;;
80257;SDS011;69565;37.974;23.708;2023-04-25T08:23:45;2.90;;;0.30;;
80257;SDS011;69565;37.974;23.708;2023-04-25T08:26:11;0.60;;;0.32;;
80257;SDS011;69565;37.974;23.708;2023-04-25T08:28:36;0.82;;;0.32;;
80257;SDS011;69565;37.974;23.708;2023-04-25T08:31:02;0.65;;;0.40;;
80257;SDS011;69565;37.974;23.708;2023-04-25T08:33:28;3.67;;;0.30;;
80257;SDS011;69565;37.974;23.708;2023-04-25T08:35:55;0.85;;;0.40;;
80257;SDS011;69565;37.974;23.708;2023-04-25T08:38:21;0.55;;;0.30;;
80257;SDS011;69565;37.974;23.708;2023-04-25T08:40:48;1.63;;;0.32;;
80257;SDS011;69565;37.974;23.708;2023-04-25T08:43:17;0.50;;;0.30;;
80257;SDS011;69565;37.974;23.708;2023-04-25T08:45:44;0.47;;;0.30;;
80257;SDS011;69565;37.974;23.708;2023-04-25T08:48:14;1.17;;;0.30;;
80257;SDS011;69565;37.974;23.708;2023-04-25T08:50:51;1.60;;;0.38;;
80257;SDS011;69565;37.974;23.708;2023-04-25T08:53:22;0.50;;;0.30;;
80257;SDS011;69565;37.974;23.708;2023-04-25T08:55:56;2.00;;;0.40;;
80257;SDS011;69565;37.974;23.708;2023-04-25T08:58:23;1.43;;;0.40;;
80257;SDS011;69565;37.974;23.708;2023-04-25T09:00:49;1.45;;;0.38;;
80257;SDS011;69565;37.974;23.708;2023-04-25T09:03:19;0.90;;;0.30;;
80257;SDS011;69565;37.974;23.708;2023-04-25T09:05:45;1.00;;;0.30;;
80257;SDS011;69565;37.974;23.708;2023-04-25T09:08:11;2.17;;;0.30;;
80257;SDS011;69565;37.974;23.708;2023-04-25T09:10:37;1.55;;;0.30;;
80257;SDS011;69565;37.974;23.708;2023-04-25T09:13:10;0.63;;;0.30;;
80257;SDS011;69565;37.974;23.708;2023-04-25T09:15:50;1.23;;;0.30;;
80257;SDS011;69565;37.974;23.708;2023-04-25T09:18:23;0.77;;;0.32;;
80257;SDS011;69565;37.974;23.708;2023-04-25T09:20:56;2.28;;;0.30;;
80257;SDS011;69565;37.974;23.708;2023-04-25T09:23:29;1.08;;;0.30;;
80257;SDS011;69565;37.974;23.708;2023-04-25T09:25:55;0.65;;;0.30;;
80257;SDS011;69565;37.974;23.708;2023-04-25T09:28:24;1.42;;;0.30;;
80257;SDS011;69565;37.974;23.708;2023-04-25T09:30:54;0.52;;;0.30;;
80257;SDS011;69565;37.974;23.708;2023-04-25T09:33:27;0.75;;;0.40;;
80257;SDS011;69565;37.974;23.708;2023-04-25T09:38:26;0.70;;;0.40;;
80257;SDS011;69565;37.974;23.708;2023-04-25T09:40:54;4.90;;;0.40;;
80257;SDS011;69565;37.974;23.708;2023-04-25T09:43:21;1.35;;;0.45;;
80257;SDS011;69565;37.974;23.708;2023-04-25T09:45:50;3.60;;;0.50;;
80257;SDS011;69565;37.974;23.708;2023-04-25T09:48:18;3.25;;;0.40;;
80257;SDS011;69565;37.974;23.708;2023-04-25T09:53:36;3.50;;;0.40;;
80257;SDS011;69565;37.974;23.708;2023-04-25T09:56:04;2.10;;;0.30;;
80257;SDS011;69565;37.974;23.708;2023-04-25T09:58:32;1.38;;;0.30;;
80257;SDS011;69565;37.974;23.708;2023-04-25T10:01:03;4.63;;;0.40;;
80257;SDS011;69565;37.974;23.708;2023-04-25T10:03:33;1.00;;;0.40;;
80257;SDS011;69565;37.974;23.708;2023-04-25T10:06:02;1.38;;;0.40;;
80257;SDS011;69565;37.974;23.708;2023-04-25T10:08:32;3.03;;;0.40;;
80257;SDS011;69565;37.974;23.708;2023-04-25T10:11:00;4.43;;;0.40;;
80257;SDS011;69565;37.974;23.708;2023-04-25T10:13:28;1.73;;;0.30;;
80257;SDS011;69565;37.974;23.708;2023-04-25T10:15:56;2.70;;;0.40;;
80257;SDS011;69565;37.974;23.708;2023-04-25T10:18:23;4.05;;;0.40;;
80257;SDS011;69565;37.974;23.708;2023-04-25T10:20:57;1.95;;;0.30;;
80257;SDS011;69565;37.974;23.708;2023-04-25T10:23:25;2.40;;;0.35;;
80257;SDS011;69565;37.974;23.708;2023-04-25T10:25:52;0.90;;;0.40;;
80257;SDS011;69565;37.974;23.708;2023-04-25T10:28:19;0.60;;;0.40;;
80257;SDS011;69565;37.974;23.708;2023-04-25T10:31:01;0.65;;;0.45;;
80257;SDS011;69565;37.974;23.708;2023-04-25T10:36:11;1.48;;;0.40;;
80257;SDS011;69565;37.974;23.708;2023-04-25T10:38:38;1.02;;;0.35;;
80257;SDS011;69565;37.974;23.708;2023-04-25T10:41:05;0.55;;;0.30;;
80257;SDS011;69565;37.974;23.708;2023-04-25T10:46:02;7.00;;;0.50;;
80257;SDS011;69565;37.974;23.708;2023-04-25T10:48:37;0.70;;;0.40;;
80257;SDS011;69565;37.974;23.708;2023-04-25T10:51:16;1.60;;;0.50;;
80257;SDS011;69565;37.974;23.708;2023-04-25T10:56:21;3.17;;;0.43;;
80257;SDS011;69565;37.974;23.708;2023-04-25T10:58:48;1.13;;;0.38;;
80257;SDS011;69565;37.974;23.708;2023-04-25T11:01:24;1.38;;;0.40;;
80257;SDS011;69565;37.974;23.708;2023-04-25T11:03:56;2.60;;;0.32;;
80257;SDS011;69565;37.974;23.708;2023-04-25T11:06:26;0.73;;;0.30;;
80257;SDS011;69565;37.974;23.708;2023-04-25T11:09:00;3.05;;;0.40;;
80257;SDS011;69565;37.974;23.708;2023-04-25T11:11:27;3.35;;;0.40;;
80257;SDS011;69565;37.974;23.708;2023-04-25T11:13:54;1.15;;;0.35;;
80257;SDS011;69565;37.974;23.708;2023-04-25T11:16:20;1.35;;;0.40;;
80257;SDS011;69565;37.974;23.708;2023-04-25T11:18:49;2.95;;;0.50;;
80257;SDS011;69565;37.974;23.708;2023-04-25T11:21:15;1.30;;;0.40;;
80257;SDS011;69565;37.974;23.708;2023-04-25T11:23:44;4.93;;;0.40;;
80257;SDS011;69565;37.974;23.708;2023-04-25T11:26:11;7.55;;;0.30;;
80257;SDS011;69565;37.974;23.708;2023-04-25T11:28:38;1.48;;;0.30;;
80257;SDS011;69565;37.974;23.708;2023-04-25T11:31:04;1.48;;;0.38;;
80257;SDS011;69565;37.974;23.708;2023-04-25T11:33:30;1.42;;;0.40;;
80257;SDS011;69565;37.974;23.708;2023-04-25T11:35:56;0.95;;;0.40;;
80257;SDS011;69565;37.974;23.708;2023-04-25T11:38:22;1.17;;;0.30;;
80257;SDS011;69565;37.974;23.708;2023-04-25T11:40:52;4.25;;;0.30;;
80257;SDS011;69565;37.974;23.708;2023-04-25T11:43:22;2.65;;;0.30;;
80257;SDS011;69565;37.974;23.708;2023-04-25T11:45:48;0.50;;;0.30;;
80257;SDS011;69565;37.974;23.708;2023-04-25T11:48:16;0.80;;;0.30;;
80257;SDS011;69565;37.974;23.708;2023-04-25T11:50:42;5.50;;;0.40;;
80257;SDS011;69565;37.974;23.708;2023-04-25T11:53:08;3.13;;;0.30;;
80257;SDS011;69565;37.974;23.708;2023-04-25T11:55:35;4.60;;;0.30;;
80257;SDS011;69565;37.974;23.708;2023-04-25T11:58:01;0.57;;;0.30;;
80257;SDS011;69565;37.974;23.708;2023-04-25T12:00:28;3.30;;;0.40;;
80257;SDS011;69565;37.974;23.708;2023-04-25T12:02:55;2.53;;;0.40;;
80257;SDS011;69565;37.974;23.708;2023-04-25T12:05:26;2.15;;;0.30;;
80257;SDS011;69565;37.974;23.708;2023-04-25T12:07:53;2.58;;;0.40;;
80257;SDS011;69565;37.974;23.708;2023-04-25T12:10:19;0.63;;;0.30;;
80257;SDS011;69565;37.974;23.708;2023-04-25T12:12:46;1.08;;;0.40;;
80257;SDS011;69565;37.974;23.708;2023-04-25T12:15:25;2.33;;;0.40;;
80257;SDS011;69565;37.974;23.708;2023-04-25T12:17:51;0.70;;;0.30;;
80257;SDS011;69565;37.974;23.708;2023-04-25T12:20:20;0.85;;;0.30;;
80257;SDS011;69565;37.974;23.708;2023-04-25T12:22:49;1.10;;;0.40;;
80257;SDS011;69565;37.974;23.708;2023-04-25T12:28:17;0.60;;;0.40;;
80257;SDS011;69565;37.974;23.708;2023-04-25T12:33:20;2.72;;;0.47;;
80257;SDS011;69565;37.974;23.708;2023-04-25T12:35:46;1.92;;;0.40;;
80257;SDS011;69565;37.974;23.708;2023-04-25T12:38:20;1.55;;;0.40;;
80257;SDS011;69565;37.974;23.708;2023-04-25T12:40:56;7.10;;;0.40;;
80257;SDS011;69565;37.974;23.708;2023-04-25T12:43:22;1.92;;;0.40;;
80257;SDS011;69565;37.974;23.708;2023-04-25T12:45:52;0.98;;;0.40;;
80257;SDS011;69565;37.974;23.708;2023-04-25T12:48:19;2.80;;;0.32;;
80257;SDS011;69565;37.974;23.708;2023-04-25T12:50:46;1.52;;;0.40;;
80257;SDS011;69565;37.974;23.708;2023-04-25T12:53:19;1.25;;;0.40;;
80257;SDS011;69565;37.974;23.708;2023-04-25T12:55:45;0.85;;;0.40;;
80257;SDS011;69565;37.974;23.708;2023-04-25T12:58:12;1.05;;;0.40;;
80257;SDS011;69565;37.974;23.708;2023-04-25T13:00:38;0.45;;;0.30;;
80257;SDS011;69565;37.974;23.708;2023-04-25T13:03:04;1.73;;;0.40;;
80257;SDS011;69565;37.974;23.708;2023-04-25T13:05:33;0.47;;;0.30;;
80257;SDS011;69565;37.974;23.708;2023-04-25T13:07:59;0.63;;;0.30;;
80257;SDS011;69565;37.974;23.708;2023-04-25T13:10:24;0.90;;;0.30;;
80257;SDS011;69565;37.974;23.708;2023-04-25T13:12:50;2.00;;;0.50;;
80257;SDS011;69565;37.974;23.708;2023-04-25T13:15:16;0.50;;;0.30;;
80257;SDS011;69565;37.974;23.708;2023-04-25T13:17:42;0.85;;;0.40;;
80257;SDS011;69565;37.974;23.708;2023-04-25T13:20:08;2.17;;;0.30;;
80257;SDS011;69565;37.974;23.708;2023-04-25T13:22:35;1.13;;;0.40;;
80257;SDS011;69565;37.974;23.708;2023-04-25T13:25:04;0.63;;;0.40;;
80257;SDS011;69565;37.974;23.708;2023-04-25T13:27:32;0.80;;;0.40;;
80257;SDS011;69565;37.974;23.708;2023-04-25T13:29:59;1.52;;;0.40;;
80257;SDS011;69565;37.974;23.708;2023-04-25T13:32:26;3.53;;;0.40;;
80257;SDS011;69565;37.974;23.708;2023-04-25T13:34:52;2.60;;;0.40;;
80257;SDS011;69565;37.974;23.708;2023-04-25T13:37:18;1.42;;;0.40;;
80257;SDS011;69565;37.974;23.708;2023-04-25T13:39:44;0.60;;;0.32;;
80257;SDS011;69565;37.974;23.708;2023-04-25T13:42:09;1.50;;;0.40;;
80257;SDS011;69565;37.974;23.708;2023-04-25T13:44:36;1.48;;;0.50;;
80257;SDS011;69565;37.974;23.708;2023-04-25T13:47:02;1.20;;;0.32;;
80257;SDS011;69565;37.974;23.708;2023-04-25T13:49:28;2.40;;;0.30;;
80257;SDS011;69565;37.974;23.708;2023-04-25T13:51:53;1.73;;;0.30;;
80257;SDS011;69565;37.974;23.708;2023-04-25T13:54:19;1.25;;;0.30;;
80257;SDS011;69565;37.974;23.708;2023-04-25T13:56:45;1.75;;;0.40;;
80257;SDS011;69565;37.974;23.708;2023-04-25T13:59:10;1.70;;;0.40;;
80257;SDS011;69565;37.974;23.708;2023-04-25T14:01:36;0.57;;;0.30;;
80257;SDS011;69565;37.974;23.708;2023-04-25T14:04:02;2.08;;;0.40;;
80257;SDS011;69565;37.974;23.708;2023-04-25T14:06:31;0.73;;;0.30;;
80257;SDS011;69565;37.974;23.708;2023-04-25T14:08:57;4.50;;;0.30;;
80257;SDS011;69565;37.974;23.708;2023-04-25T14:11:26;0.80;;;0.38;;
80257;SDS011;69565;37.974;23.708;2023-04-25T14:13:51;0.60;;;0.30;;
80257;SDS011;69565;37.974;23.708;2023-04-25T14:16:17;3.05;;;0.30;;
80257;SDS011;69565;37.974;23.708;2023-04-25T14:18:43;1.00;;;0.30;;
80257;SDS011;69565;37.974;23.708;2023-04-25T14:21:09;3.72;;;0.50;;
80257;SDS011;69565;37.974;23.708;2023-04-25T14:23:35;2.28;;;0.40;;
80257;SDS011;69565;37.974;23.708;2023-04-25T14:26:01;1.20;;;0.40;;
80257;SDS011;69565;37.974;23.708;2023-04-25T14:28:27;0.80;;;0.50;;
80257;SDS011;69565;37.974;23.708;2023-04-25T14:30:52;0.90;;;0.43;;
80257;SDS011;69565;37.974;23.708;2023-04-25T14:33:18;1.00;;;0.40;;
80257;SDS011;69565;37.974;23.708;2023-04-25T14:35:44;2.08;;;0.50;;
80257;SDS011;69565;37.974;23.708;2023-04-25T14:38:10;0.50;;;0.40;;
80257;SDS011;69565;37.974;23.708;2023-04-25T14:40:36;1.35;;;0.40;;
80257;SDS011;69565;37.974;23.708;2023-04-25T14:43:03;3.75;;;0.50;;
80257;SDS011;69565;37.974;23.708;2023-04-25T14:45:28;0.60;;;0.40;;
80257;SDS011;69565;37.974;23.708;2023-04-25T14:47:54;0.65;;;0.30;;
80257;SDS011;69565;37.974;23.708;2023-04-25T14:50:20;1.10;;;0.40;;